Time;durP1;ratioP1;P1;durP2;ratioP2;P2;SDS_P1;SDS_P2;PMS_P1;PMS_P2;Temp;Humidity;BMP_temperature;BMP_pressure;BME280_temperature;BME280_humidity;BME280_pressure;Samples;Min_cycle;Max_cycle;Signal;HPM_P1;HPM_P2
2021/09/14 00:01:01;;;;;;;11.65;4.68;;;;;;;13.76;88.18;101875.97;5030141;28;20091;-79
2021/09/14 00:03:27;;;;;;;13.25;4.07;;;;;;;13.78;87.91;101882.03;5029799;28;20086;-79
2021/09/14 00:05:52;;;;;;;8.98;4.00;;;;;;;13.86;87.46;101877.41;5029846;28;20030;-80
2021/09/14 00:08:17;;;;;;;6.75;3.97;;;;;;;13.93;86.78;101872.81;5030046;28;20032;-80
2021/09/14 00:10:43;;;;;;;10.70;4.43;;;;;;;13.93;87.05;101864.88;5030315;28;20095;-80
2021/09/14 00:13:08;;;;;;;13.13;4.35;;;;;;;13.94;87.09;101870.13;5012882;28;20075;-80
2021/09/14 00:15:34;;;;;;;10.20;4.35;;;;;;;13.93;86.79;101873.69;5029868;28;20025;-80
2021/09/14 00:17:59;;;;;;;9.13;4.13;;;;;;;13.92;87.05;101877.22;5030198;28;20017;-78
2021/09/14 00:20:25;;;;;;;8.90;4.25;;;;;;;13.90;87.13;101878.19;5030353;28;20061;-80
2021/09/14 00:22:50;;;;;;;8.02;4.35;;;;;;;13.86;87.33;101872.13;5030377;28;20057;-80
2021/09/14 00:25:15;;;;;;;8.38;3.92;;;;;;;13.90;87.02;101871.13;5011243;28;20029;-80
2021/09/14 00:27:41;;;;;;;7.57;4.10;;;;;;;13.93;86.75;101878.97;5030176;28;20021;-80
2021/09/14 00:30:06;;;;;;;7.13;4.18;;;;;;;13.90;86.87;101871.13;5029392;28;20056;-80
2021/09/14 00:32:32;;;;;;;8.77;4.32;;;;;;;13.91;86.97;101878.13;5030125;28;20034;-80
2021/09/14 00:34:57;;;;;;;8.80;4.40;;;;;;;13.97;86.59;101877.94;5029078;28;20065;-80
2021/09/14 00:37:22;;;;;;;10.68;4.70;;;;;;;13.99;86.44;101884.03;5029288;28;20444;-80
2021/09/14 00:39:48;;;;;;;10.30;5.13;;;;;;;14.02;86.52;101883.09;5028603;28;20535;-80
2021/09/14 00:42:13;;;;;;;8.88;4.47;;;;;;;14.04;86.38;101874.22;5029092;28;20976;-80
2021/09/14 00:44:38;;;;;;;14.25;4.72;;;;;;;14.08;86.18;101871.47;5011701;28;20542;-80
2021/09/14 00:47:04;;;;;;;8.00;4.55;;;;;;;14.11;86.36;101874.03;5027978;28;20022;-79
2021/09/14 00:49:30;;;;;;;11.57;4.85;;;;;;;14.09;86.30;101876.72;5029117;28;20022;-80
2021/09/14 00:51:55;;;;;;;13.35;6.00;;;;;;;14.06;86.45;101878.59;5028720;28;20400;-80
2021/09/14 00:54:20;;;;;;;9.45;4.90;;;;;;;14.10;86.21;101874.94;5028819;28;20061;-80
2021/09/14 00:56:46;;;;;;;10.23;4.95;;;;;;;14.13;85.91;101875.69;5011034;28;20056;-80
2021/09/14 00:59:12;;;;;;;8.43;4.47;;;;;;;14.16;85.82;101870.31;5011030;28;20120;-80
2021/09/14 01:01:37;;;;;;;11.38;5.00;;;;;;;14.19;85.55;101866.75;5029367;28;20022;-80
2021/09/14 01:04:03;;;;;;;8.00;4.43;;;;;;;14.23;85.54;101870.13;5011149;28;20100;-80
2021/09/14 01:06:29;;;;;;;11.55;5.07;;;;;;;14.25;85.41;101863.03;5011808;28;20510;-80
2021/09/14 01:08:54;;;;;;;8.80;4.70;;;;;;;14.25;85.25;101853.34;5033196;28;20056;-80
2021/09/14 01:11:20;;;;;;;10.50;5.18;;;;;;;14.23;85.60;101855.16;5015886;28;20105;-80
2021/09/14 01:13:45;;;;;;;8.77;4.50;;;;;;;14.25;85.68;101857.75;5033201;28;20104;-79
2021/09/14 01:16:13;;;;;;;11.48;4.95;;;;;;;14.24;85.21;101850.75;5031610;28;20108;-80
2021/09/14 01:18:39;;;;;;;9.32;4.53;;;;;;;14.29;84.88;101846.16;5032674;28;20387;-80
2021/09/14 01:21:05;;;;;;;9.38;5.13;;;;;;;14.28;85.00;101849.75;5014563;28;20028;-79
2021/09/14 01:23:30;;;;;;;10.63;4.93;;;;;;;14.17;85.73;101839.53;5014668;28;20029;-79
2021/09/14 01:25:55;;;;;;;9.82;4.95;;;;;;;14.14;85.29;101840.50;5031705;28;20056;-79
2021/09/14 01:28:21;;;;;;;7.45;4.93;;;;;;;14.09;85.99;101842.41;5032638;28;20489;-79
2021/09/14 01:30:46;;;;;;;10.80;5.20;;;;;;;14.05;85.79;101840.78;5014770;28;20029;-79
2021/09/14 01:33:12;;;;;;;8.77;4.93;;;;;;;14.08;85.66;101834.53;5014534;28;20037;-79
2021/09/14 01:35:38;;;;;;;11.48;5.35;;;;;;;14.03;85.77;101829.44;5032037;28;20024;-80
2021/09/14 01:38:03;;;;;;;11.90;5.40;;;;;;;14.00;86.08;101832.13;5043217;28;20029;-79
2021/09/14 01:40:29;;;;;;;11.18;5.10;;;;;;;14.00;86.09;101833.03;5032844;28;20029;-79
2021/09/14 01:42:54;;;;;;;9.77;4.75;;;;;;;13.99;86.21;101836.56;5014372;28;20022;-80
2021/09/14 01:45:20;;;;;;;9.02;4.93;;;;;;;14.00;86.08;101840.06;5031843;28;20449;-80
2021/09/14 01:47:45;;;;;;;12.73;5.55;;;;;;;13.94;86.07;101834.97;5032141;28;20029;-79
2021/09/14 01:50:13;;;;;;;9.10;4.97;;;;;;;13.93;86.63;101831.47;5013908;28;20022;-80
2021/09/14 01:52:38;;;;;;;10.00;5.68;;;;;;;13.90;86.66;101826.28;5032242;28;20037;-79
2021/09/14 01:55:05;;;;;;;8.25;5.20;;;;;;;13.95;86.43;101823.53;5030947;28;20080;-79
2021/09/14 01:57:40;;;;;;;11.63;5.72;;;;;;;13.93;86.54;101825.31;5032000;28;20036;-79
2021/09/14 02:00:11;;;;;;;12.07;5.45;;;;;;;13.90;86.50;101815.75;5031458;28;20431;-79
2021/09/14 02:02:53;;;;;;;10.18;5.30;;;;;;;13.92;86.53;101820.97;5014694;28;20029;-80
2021/09/14 02:56:48;;;;;;;10.80;6.97;;;;;;;13.29;89.93;101786.81;5030613;28;20399;-79
2021/09/14 02:59:13;;;;;;;13.68;7.35;;;;;;;13.26;89.87;101786.88;5030544;28;20726;-79
2021/09/14 03:01:39;;;;;;;11.55;7.38;;;;;;;13.24;89.99;101777.25;5030573;28;20033;-79
2021/09/14 03:04:07;;;;;;;13.95;7.80;;;;;;;13.23;89.84;101779.94;5012621;28;20028;-79
2021/09/14 03:06:32;;;;;;;17.02;7.82;;;;;;;13.22;89.81;101775.56;5030465;28;20029;-80
2021/09/14 03:08:58;;;;;;;12.88;7.70;;;;;;;13.18;90.17;101773.94;5029526;28;20021;-80
2021/09/14 03:11:23;;;;;;;13.73;6.85;;;;;;;13.18;89.93;101766.03;5030826;28;20028;-80
2021/09/14 03:13:49;;;;;;;14.25;7.43;;;;;;;13.19;90.35;101767.78;5030190;28;20442;-80
2021/09/14 03:16:14;;;;;;;12.07;6.95;;;;;;;13.21;89.71;101758.06;5029982;28;20427;-80
2021/09/14 03:18:40;;;;;;;13.15;7.88;;;;;;;13.16;90.08;101757.31;5012477;28;20040;-80
2021/09/14 03:21:07;;;;;;;12.50;7.43;;;;;;;13.13;90.00;101749.50;5030281;28;20101;-79
2021/09/14 03:23:34;;;;;;;15.40;7.63;;;;;;;13.12;90.15;101751.25;5030466;28;20479;-80
2021/09/14 03:26:00;;;;;;;14.50;7.53;;;;;;;13.13;90.08;101744.25;5029682;28;20470;-79
2021/09/14 03:28:25;;;;;;;14.27;8.07;;;;;;;13.10;90.03;101731.16;5012536;28;20028;-79
2021/09/14 03:30:51;;;;;;;12.88;7.47;;;;;;;13.08;90.08;101728.56;5029973;28;20030;-79
2021/09/14 03:33:17;;;;;;;13.10;8.20;;;;;;;13.10;89.96;101732.03;5030479;28;20021;-79
2021/09/14 03:35:42;;;;;;;12.52;7.10;;;;;;;13.07;90.01;101732.97;5030688;28;20036;-79
2021/09/14 03:38:08;;;;;;;10.75;7.07;;;;;;;13.09;89.93;101727.66;5012334;28;20068;-79
2021/09/14 03:40:34;;;;;;;14.20;8.02;;;;;;;13.08;89.93;101724.19;5030389;28;20446;-80
2021/09/14 03:42:59;;;;;;;10.27;7.20;;;;;;;13.06;90.06;101730.38;5038950;28;20033;-79
2021/09/14 03:45:25;;;;;;;13.65;8.00;;;;;;;13.04;90.03;101730.41;5029562;28;20049;-77
2021/09/14 03:47:50;;;;;;;18.15;7.68;;;;;;;13.01;90.13;101722.63;5013534;28;20509;-77
2021/09/14 03:50:15;;;;;;;11.45;7.05;;;;;;;13.03;89.84;101727.84;5030450;28;20026;-78
2021/09/14 03:52:41;;;;;;;19.98;7.25;;;;;;;13.00;89.93;101720.88;5030430;28;20029;-78
2021/09/14 03:55:07;;;;;;;17.30;7.35;;;;;;;12.98;90.06;101722.69;5029208;28;20027;-79
2021/09/14 03:57:32;;;;;;;12.20;7.13;;;;;;;13.00;89.88;101726.16;5029798;28;20042;-79
2021/09/14 03:59:57;;;;;;;12.63;7.88;;;;;;;12.97;89.92;101725.38;5011713;28;20438;-79
2021/09/14 04:07:51;;;;;;;13.75;7.95;;;;;;;12.92;89.86;101709.72;5029813;28;20033;-79
2021/09/14 04:10:16;;;;;;;17.42;7.72;;;;;;;12.89;90.10;101720.34;5015879;28;20045;-79
2021/09/14 04:12:42;;;;;;;12.45;8.00;;;;;;;12.81;90.32;101723.16;5029993;28;20028;-79
2021/09/14 04:15:07;;;;;;;13.88;7.13;;;;;;;12.81;90.47;101724.94;5028540;28;20025;-79
2021/09/14 04:17:32;;;;;;;12.25;7.40;;;;;;;12.82;90.32;101724.06;5029304;28;20029;-78
2021/09/14 04:19:58;;;;;;;12.90;7.85;;;;;;;12.79;90.33;101725.00;5028901;28;20029;-80
2021/09/14 04:22:23;;;;;;;12.07;7.82;;;;;;;12.77;90.39;101731.22;5029423;28;20026;-79
2021/09/14 04:24:49;;;;;;;13.70;8.48;;;;;;;12.77;90.42;101728.59;5028191;28;20088;-78
2021/09/14 04:27:14;;;;;;;18.35;7.93;;;;;;;12.77;90.22;101725.94;5028894;28;20079;-78
2021/09/14 04:29:39;;;;;;;12.13;8.02;;;;;;;12.73;90.20;101726.03;5029443;28;20029;-80
2021/09/14 04:32:05;;;;;;;12.23;7.40;;;;;;;12.70;90.49;101727.88;5028768;28;20025;-80
2021/09/14 04:34:30;;;;;;;17.20;8.55;;;;;;;12.69;90.18;101712.97;5029176;28;20033;-80
2021/09/14 04:36:55;;;;;;;10.55;7.93;;;;;;;12.67;90.56;101712.19;5028254;28;20491;-80
2021/09/14 04:39:21;;;;;;;17.25;8.48;;;;;;;12.62;90.86;101709.66;5028842;28;20036;-79
2021/09/14 04:41:46;;;;;;;14.32;8.35;;;;;;;12.60;90.97;101716.72;5028590;28;20041;-80
2021/09/14 04:44:12;;;;;;;12.13;8.13;;;;;;;12.61;91.17;101723.72;5010902;28;20147;-79
2021/09/14 04:46:37;;;;;;;11.30;7.75;;;;;;;12.62;90.79;101711.44;5029014;28;20112;-78
2021/09/14 04:49:03;;;;;;;13.75;8.13;;;;;;;12.59;90.80;101708.00;5028259;28;20025;-80
2021/09/14 04:51:28;;;;;;;18.30;8.93;;;;;;;12.58;90.80;101703.63;5011231;28;20112;-78
2021/09/14 04:53:54;;;;;;;13.73;8.32;;;;;;;12.59;91.06;101710.63;5010720;28;20025;-78
2021/09/14 04:56:19;;;;;;;12.93;8.30;;;;;;;12.63;90.69;101713.16;5028125;28;20021;-79
2021/09/14 04:58:46;;;;;;;14.32;8.15;;;;;;;12.65;90.65;101712.22;5028800;28;20029;-79
2021/09/14 05:01:14;;;;;;;13.80;7.93;;;;;;;12.66;90.31;101711.31;5010364;28;20022;-79
2021/09/14 05:03:40;;;;;;;14.13;7.90;;;;;;;12.67;90.29;101706.91;5028591;28;20104;-79
2021/09/14 05:06:05;;;;;;;14.48;8.45;;;;;;;12.65;90.32;101712.22;5027693;28;20495;-79
2021/09/14 05:08:30;;;;;;;13.88;9.02;;;;;;;12.59;90.54;101701.88;5028555;28;20132;-79
2021/09/14 05:10:58;;;;;;;14.80;8.98;;;;;;;12.57;90.59;101711.56;5028227;28;20033;-79
2021/09/14 05:13:23;;;;;;;12.02;8.32;;;;;;;12.64;90.22;101712.25;5028760;28;20021;-76
2021/09/14 05:15:48;;;;;;;14.65;8.65;;;;;;;12.63;90.34;101707.88;5028100;28;20036;-77
2021/09/14 05:18:14;;;;;;;14.63;8.63;;;;;;;12.63;90.48;101708.78;5012042;28;20062;-78
2021/09/14 05:20:42;;;;;;;14.52;9.40;;;;;;;12.69;89.94;101718.25;5010825;28;20025;-77
2021/09/14 05:23:21;;;;;;;15.80;9.07;;;;;;;12.69;89.99;101712.97;5006718;28;20078;-78
2021/09/14 05:25:46;;;;;;;14.05;7.95;;;;;;;12.71;89.73;101713.81;5022765;28;20599;-76
2021/09/14 05:28:13;;;;;;;13.75;8.95;;;;;;;12.68;89.71;101714.75;5027901;28;20029;-77
2021/09/14 05:30:40;;;;;;;15.05;9.18;;;;;;;12.71;89.52;101711.19;5028234;28;20021;-77
2021/09/14 05:33:05;;;;;;;14.45;8.55;;;;;;;12.72;89.55;101702.38;5016962;28;20022;-76
2021/09/14 05:35:43;;;;;;;16.98;8.95;;;;;;;12.64;89.85;101704.34;4991756;28;20105;-76
2021/09/14 05:38:08;;;;;;;20.20;9.07;;;;;;;12.64;89.81;101699.97;5008056;28;20064;-77
2021/09/14 05:40:35;;;;;;;17.88;9.25;;;;;;;12.71;89.40;101696.28;5003942;28;20046;-75
2021/09/14 05:43:00;;;;;;;17.48;9.25;;;;;;;12.69;89.64;101689.28;5025164;28;20026;-77
2021/09/14 05:45:25;;;;;;;14.13;8.45;;;;;;;12.70;89.23;101683.13;5022556;28;20037;-80
2021/09/14 05:47:51;;;;;;;16.75;9.40;;;;;;;12.72;89.33;101687.44;5029462;28;20075;-83
2021/09/14 05:50:16;;;;;;;16.80;9.68;;;;;;;12.75;89.23;101676.84;5034574;28;20025;-77
2021/09/14 05:52:42;;;;;;;13.38;9.10;;;;;;;12.72;89.21;101676.06;5025841;28;20025;-76
2021/09/14 05:55:08;;;;;;;13.20;8.73;;;;;;;12.75;89.09;101676.84;5037817;28;20029;-86
2021/09/14 05:57:33;;;;;;;13.90;9.18;;;;;;;12.83;88.37;101670.50;5031662;28;20345;-77
2021/09/14 05:59:59;;;;;;;14.25;9.32;;;;;;;12.84;88.67;101672.22;5017133;28;20029;-78
2021/09/14 06:02:24;;;;;;;14.45;8.60;;;;;;;12.86;88.17;101673.91;5022080;28;20032;-79
2021/09/14 06:04:49;;;;;;;15.32;8.75;;;;;;;12.87;88.39;101675.59;5014841;28;20456;-82
2021/09/14 06:07:14;;;;;;;15.75;9.00;;;;;;;12.87;88.49;101680.03;4995870;28;20026;-82
2021/09/14 06:09:40;;;;;;;16.15;8.52;;;;;;;12.94;88.13;101678.06;5013551;28;20030;-77
2021/09/14 06:12:06;;;;;;;17.15;8.68;;;;;;;12.96;87.84;101668.34;5011554;28;20060;-77
2021/09/14 06:14:31;;;;;;;12.13;8.48;;;;;;;12.97;88.07;101681.47;5013710;28;20113;-77
2021/09/14 06:16:57;;;;;;;15.82;9.70;;;;;;;12.91;88.35;101669.38;5011131;28;20109;-82
2021/09/14 06:19:23;;;;;;;16.35;9.10;;;;;;;12.89;88.62;101667.69;5015096;28;20511;-81
2021/09/14 06:21:48;;;;;;;18.42;9.38;;;;;;;12.92;88.56;101664.94;5017794;28;20120;-80
2021/09/14 06:24:14;;;;;;;14.93;8.95;;;;;;;13.03;87.75;101665.47;4993877;28;20146;-80
2021/09/14 06:26:39;;;;;;;13.65;8.38;;;;;;;13.00;88.14;101670.84;5026506;28;20028;-81
2021/09/14 06:29:04;;;;;;;13.80;8.50;;;;;;;13.06;87.62;101675.94;5024468;28;20041;-83
2021/09/14 06:31:30;;;;;;;14.95;8.88;;;;;;;13.10;87.36;101679.34;5031105;28;20113;-81
2021/09/14 06:33:55;;;;;;;14.57;9.10;;;;;;;13.17;87.20;101682.66;5025530;28;20030;-81
2021/09/14 06:36:20;;;;;;;12.98;8.55;;;;;;;13.21;87.27;101674.63;5021760;28;20052;-82
2021/09/14 06:38:46;;;;;;;11.80;8.60;;;;;;;13.30;86.55;101678.72;5022653;28;20079;-78
2021/09/14 06:41:11;;;;;;;14.60;9.13;;;;;;;13.44;85.84;101686.22;5016446;28;20096;-79
2021/09/14 06:43:36;;;;;;;15.10;9.00;;;;;;;13.54;85.62;101689.44;5011816;28;20034;-78
2021/09/14 06:46:02;;;;;;;15.30;9.18;;;;;;;13.67;85.36;101688.16;5020609;28;20030;-77
2021/09/14 06:48:27;;;;;;;14.35;9.40;;;;;;;13.87;84.22;101684.00;5010764;28;20374;-78
2021/09/14 06:50:53;;;;;;;16.98;9.73;;;;;;;13.91;84.70;101680.34;5014531;28;20476;-80
2021/09/14 06:53:18;;;;;;;13.25;9.25;;;;;;;13.97;84.27;101674.84;5018299;28;20017;-78
2021/09/14 06:55:43;;;;;;;14.10;8.73;;;;;;;13.97;83.79;101674.00;5023734;28;20088;-78
2021/09/14 06:58:09;;;;;;;12.95;9.48;;;;;;;13.95;84.54;101665.28;5014495;28;20076;-79
2021/09/14 07:00:36;;;;;;;12.05;8.45;;;;;;;14.06;83.53;101673.69;5015307;28;20026;-77
2021/09/14 07:03:01;;;;;;;13.82;9.05;;;;;;;14.08;84.23;101669.22;5009521;28;20018;-79
2021/09/14 07:05:26;;;;;;;13.35;8.45;;;;;;;14.18;83.44;101675.03;5009414;28;20356;-76
2021/09/14 07:07:52;;;;;;;13.05;9.13;;;;;;;14.16;83.05;101669.81;5011396;28;20032;-75
2021/09/14 07:10:18;;;;;;;15.50;8.55;;;;;;;14.34;82.54;101657.75;5011172;28;20033;-76
2021/09/14 07:12:43;;;;;;;15.65;9.20;;;;;;;14.26;83.08;101651.03;5024444;28;20098;-75
2021/09/14 07:15:09;;;;;;;13.82;8.98;;;;;;;14.35;83.25;101655.97;5029179;28;20105;-76
2021/09/14 07:17:37;;;;;;;17.08;10.15;;;;;;;14.38;82.90;101666.41;5017441;28;20026;-75
2021/09/14 07:20:04;;;;;;;14.10;9.95;;;;;;;14.45;82.60;101661.78;5009384;28;20061;-75
2021/09/14 07:22:30;;;;;;;13.50;9.85;;;;;;;14.48;83.01;101654.59;5011485;28;20049;-80
2021/09/14 07:24:55;;;;;;;15.32;9.38;;;;;;;14.51;82.12;101665.06;5025258;28;20022;-81
2021/09/14 07:27:21;;;;;;;15.77;10.23;;;;;;;14.58;82.28;101660.41;5010790;28;20057;-80
2021/09/14 07:29:48;;;;;;;14.27;10.27;;;;;;;14.71;82.27;101670.56;5010216;28;20027;-82
2021/09/14 07:32:14;;;;;;;12.85;9.43;;;;;;;14.72;81.78;101659.94;4992639;28;20425;-81
2021/09/14 07:34:39;;;;;;;15.05;9.68;;;;;;;14.87;81.65;101660.28;5009756;28;20026;-81
2021/09/14 07:37:04;;;;;;;13.95;10.57;;;;;;;14.92;81.45;101655.69;5008985;28;20038;-80
2021/09/14 07:39:30;;;;;;;14.52;10.32;;;;;;;15.01;80.92;101658.84;5017466;28;20064;-80
2021/09/14 07:41:55;;;;;;;16.95;10.23;;;;;;;15.21;80.99;101656.31;5029072;28;20407;-74
2021/09/14 07:44:20;;;;;;;14.88;9.85;;;;;;;15.47;80.20;101663.25;5029601;28;20029;-76
2021/09/14 07:46:46;;;;;;;19.15;10.52;;;;;;;15.62;79.60;101651.19;5029255;28;20029;-75
2021/09/14 07:49:11;;;;;;;15.85;10.63;;;;;;;15.80;78.97;101654.81;5028620;28;20029;-78
2021/09/14 07:51:36;;;;;;;14.75;10.85;;;;;;;15.78;78.37;101649.59;5027871;28;20076;-77
2021/09/14 07:54:02;;;;;;;17.73;11.40;;;;;;;15.77;78.12;101650.53;5016206;28;20029;-79
2021/09/14 07:56:28;;;;;;;21.38;10.95;;;;;;;15.82;78.33;101650.38;5009370;28;20037;-78
2021/09/14 07:58:53;;;;;;;13.73;10.82;;;;;;;15.91;77.10;101646.47;5022494;28;20040;-75
2021/09/14 08:01:19;;;;;;;16.35;11.30;;;;;;;15.80;78.23;101642.47;5031790;28;20032;-77
2021/09/14 08:03:44;;;;;;;18.13;12.93;;;;;;;16.02;77.17;101646.03;5035971;28;20044;-74
2021/09/14 08:06:09;;;;;;;18.10;12.45;;;;;;;16.08;77.31;101653.69;5028388;28;20042;-78
2021/09/14 08:08:35;;;;;;;17.38;12.35;;;;;;;16.20;76.73;101653.16;5029179;28;20025;-78
2021/09/14 08:11:00;;;;;;;18.67;13.27;;;;;;;16.16;76.96;101646.28;5008635;28;20037;-80
2021/09/14 08:13:25;;;;;;;19.80;13.45;;;;;;;16.34;76.37;101649.06;4994981;28;20021;-80
2021/09/14 08:15:51;;;;;;;19.20;11.98;;;;;;;16.52;75.77;101656.19;4996472;28;20045;-80
2021/09/14 08:18:16;;;;;;;19.17;12.75;;;;;;;16.70;75.82;101653.63;5023897;28;20472;-80
2021/09/14 08:20:41;;;;;;;18.08;13.70;;;;;;;16.76;74.30;101648.03;5019206;28;20443;-78
2021/09/14 08:23:07;;;;;;;15.80;12.20;;;;;;;16.87;74.80;101650.19;5022876;28;20040;-77
2021/09/14 08:25:32;;;;;;;20.27;13.48;;;;;;;17.01;73.65;101653.09;5022080;28;20044;-78
2021/09/14 08:27:57;;;;;;;17.38;13.68;;;;;;;17.20;72.94;101653.06;5014596;28;20033;-78
2021/09/14 08:30:23;;;;;;;17.70;14.27;;;;;;;17.37;72.92;101643.44;5028593;28;20057;-78
2021/09/14 08:32:50;;;;;;;17.73;13.80;;;;;;;17.25;73.25;101644.88;5028279;28;20029;-77
2021/09/14 08:35:16;;;;;;;17.85;13.40;;;;;;;17.33;73.20;101655.13;5027618;28;20086;-79
2021/09/14 08:37:41;;;;;;;20.33;13.85;;;;;;;17.50;72.78;101660.47;5028726;28;20025;-78
2021/09/14 08:40:07;;;;;;;16.73;12.68;;;;;;;17.68;72.96;101657.84;5025487;28;20132;-78
2021/09/14 08:42:35;;;;;;;19.52;13.02;;;;;;;17.87;71.72;101653.34;5017297;28;20041;-78
2021/09/14 08:45:02;;;;;;;18.20;13.45;;;;;;;18.16;70.38;101651.00;5019897;28;20514;-77
2021/09/14 08:47:28;;;;;;;19.08;14.30;;;;;;;18.29;69.43;101653.03;5004842;28;20025;-78
2021/09/14 08:49:54;;;;;;;16.65;12.73;;;;;;;18.65;100.00;101655.50;5005575;28;20032;-78
2021/09/14 08:52:19;;;;;;;21.50;14.07;;;;;;;-146.90;100.00;60518.97;5028694;28;20630;-79
2021/09/14 08:54:45;;;;;;;19.23;13.43;;;;;;;-146.90;100.00;60518.97;5027962;28;20029;-78
2021/09/14 08:57:10;;;;;;;19.25;13.23;;;;;;;-146.90;100.00;60518.97;5027108;28;20025;-78
2021/09/14 08:59:35;;;;;;;18.08;13.57;;;;;;;-146.90;100.00;60518.97;5028302;28;20041;-77
2021/09/14 09:02:05;;;;;;;18.02;13.07;;;;;;;-146.90;100.00;60518.97;5027449;28;20112;-79
2021/09/14 09:04:30;;;;;;;18.23;12.60;;;;;;;-146.90;100.00;60518.97;5000934;28;20050;-77
2021/09/14 09:06:56;;;;;;;19.67;14.25;;;;;;;-146.90;100.00;60518.97;5027306;28;20175;-78
2021/09/14 09:09:23;;;;;;;19.05;14.13;;;;;;;-146.90;100.00;60518.97;5022103;28;20113;-78
2021/09/14 09:11:55;;;;;;;18.02;12.88;;;;;;;-146.90;100.00;60518.97;5019170;28;20056;-78
2021/09/14 09:14:38;;;;;;;18.58;13.95;;;;;;;-146.90;100.00;60518.97;5027816;28;20391;-78
2021/09/14 09:17:08;;;;;;;19.63;13.23;;;;;;;-146.90;100.00;60518.97;5017642;28;20480;-78
2021/09/14 09:19:33;;;;;;;18.00;13.35;;;;;;;-146.90;100.00;60518.97;5007771;28;20040;-79
2021/09/14 09:21:59;;;;;;;20.65;13.07;;;;;;;-146.90;100.00;60518.97;5025945;28;20455;-77
2021/09/14 09:24:24;;;;;;;16.98;12.35;;;;;;;-146.90;100.00;60518.97;5007334;28;20029;-79
2021/09/14 09:26:50;;;;;;;17.67;11.60;;;;;;;-146.90;100.00;60518.97;5004489;28;20387;-77
2021/09/14 09:29:27;;;;;;;20.52;13.05;;;;;;;-146.90;100.00;60518.97;5013363;28;20037;-78
2021/09/14 09:31:53;;;;;;;18.58;12.27;;;;;;;-146.90;100.00;60518.97;5030094;28;20037;-77
2021/09/14 09:34:28;;;;;;;20.67;12.45;;;;;;;-146.90;100.00;60518.97;5013905;28;20036;-78
2021/09/14 09:37:04;;;;;;;15.45;12.18;;;;;;;-146.90;100.00;60518.97;5030771;28;20419;-78
2021/09/14 09:39:38;;;;;;;20.45;11.60;;;;;;;-146.90;100.00;60518.97;5026107;28;20492;-79
2021/09/14 09:42:05;;;;;;;13.82;10.85;;;;;;;-146.90;100.00;60518.97;5014099;28;20455;-79
2021/09/14 09:44:30;;;;;;;15.65;10.73;;;;;;;-146.90;100.00;60518.97;5031725;28;20017;-76
2021/09/14 09:46:57;;;;;;;19.63;11.40;;;;;;;-146.90;100.00;60518.97;5030852;28;20536;-79
2021/09/14 09:49:23;;;;;;;17.35;11.95;;;;;;;-146.90;100.00;60518.97;5031373;28;20040;-78
2021/09/14 09:51:49;;;;;;;19.92;11.13;;;;;;;-146.90;100.00;60518.97;5031758;28;20009;-79
2021/09/14 09:54:15;;;;;;;15.82;11.25;;;;;;;-146.90;100.00;60518.97;5006185;28;20045;-78
2021/09/14 09:56:40;;;;;;;15.52;11.05;;;;;;;-146.90;100.00;60518.97;5012962;28;20017;-77
2021/09/14 09:59:05;;;;;;;15.07;10.35;;;;;;;-146.90;100.00;60518.97;5012822;28;20038;-77
2021/09/14 10:01:33;;;;;;;17.92;11.73;;;;;;;-146.90;100.00;60518.97;5031226;28;20176;-77
2021/09/14 10:04:04;;;;;;;14.20;10.77;;;;;;;-146.90;100.00;60518.97;5030560;28;20118;-78
2021/09/14 10:06:31;;;;;;;14.27;10.18;;;;;;;-146.90;100.00;60518.97;5012789;28;20033;-78
2021/09/14 10:08:57;;;;;;;24.30;11.35;;;;;;;-146.90;100.00;60518.97;5007064;28;20032;-77
2021/09/14 10:11:24;;;;;;;15.32;10.90;;;;;;;-146.90;100.00;60518.97;5013749;28;20116;-78
2021/09/14 10:13:49;;;;;;;14.88;10.25;;;;;;;-146.90;100.00;60518.97;5028950;28;20018;-79
2021/09/14 10:16:24;;;;;;;15.13;10.35;;;;;;;-146.90;100.00;60518.97;5002984;28;20119;-77
2021/09/14 10:18:49;;;;;;;18.77;11.55;;;;;;;-146.90;100.00;60518.97;5012791;28;20059;-79
2021/09/14 10:21:19;;;;;;;14.27;10.55;;;;;;;-146.90;100.00;60518.97;5030440;28;20034;-77
2021/09/14 10:23:52;;;;;;;17.08;10.57;;;;;;;-146.90;100.00;60518.97;5012825;28;20062;-78
2021/09/14 10:26:19;;;;;;;16.85;10.70;;;;;;;-146.90;100.00;60518.97;5029886;28;20018;-78
2021/09/14 10:28:47;;;;;;;14.38;10.48;;;;;;;-146.90;100.00;60518.97;5028085;28;20565;-78
2021/09/14 10:31:26;;;;;;;15.13;10.80;;;;;;;-146.90;100.00;60518.97;5030205;28;20082;-78
2021/09/14 10:34:03;;;;;;;16.45;9.57;;;;;;;-146.90;100.00;60518.97;5028975;28;20025;-78
2021/09/14 10:36:28;;;;;;;12.32;9.18;;;;;;;-146.90;100.00;60518.97;5012154;28;20052;-78
2021/09/14 10:38:53;;;;;;;18.63;9.77;;;;;;;-146.90;100.00;60518.97;5028316;28;20061;-77
2021/09/14 10:41:19;;;;;;;13.43;8.93;;;;;;;-146.90;100.00;60518.97;5029723;28;20056;-77
2021/09/14 10:43:55;;;;;;;15.02;10.40;;;;;;;-146.90;100.00;60518.97;5019617;28;20027;-78
2021/09/14 10:46:21;;;;;;;15.38;9.18;;;;;;;-146.90;100.00;60518.97;5029791;28;20033;-79
2021/09/14 10:48:48;;;;;;;16.95;9.35;;;;;;;-146.90;100.00;60518.97;5030775;28;20026;-78
2021/09/14 10:51:16;;;;;;;15.18;8.52;;;;;;;-146.90;100.00;60518.97;5007067;28;20105;-78
2021/09/14 10:53:55;;;;;;;14.57;8.65;;;;;;;-146.90;100.00;60518.97;5030518;28;20045;-78
2021/09/14 10:56:21;;;;;;;13.95;8.90;;;;;;;-146.90;100.00;60518.97;5029551;28;20033;-78
2021/09/14 10:58:47;;;;;;;14.40;8.82;;;;;;;-146.90;100.00;60518.97;5012647;28;20073;-79
2021/09/14 11:01:13;;;;;;;12.85;8.90;;;;;;;-146.90;100.00;60518.97;5029761;28;20502;-78
2021/09/14 11:03:40;;;;;;;13.00;8.63;;;;;;;-146.90;100.00;60518.97;5023590;28;20383;-79
2021/09/14 11:06:10;;;;;;;15.90;9.43;;;;;;;-146.90;100.00;60518.97;5021203;28;20455;-79
2021/09/14 11:08:36;;;;;;;13.18;8.45;;;;;;;-146.90;100.00;60518.97;5030118;28;20061;-78
2021/09/14 11:11:02;;;;;;;20.40;9.82;;;;;;;-146.90;100.00;60518.97;5029894;28;20026;-78
2021/09/14 11:13:30;;;;;;;15.68;9.43;;;;;;;-146.90;100.00;60518.97;5030162;28;20029;-77
2021/09/14 11:15:58;;;;;;;13.15;8.77;;;;;;;-146.90;100.00;60518.97;5029188;28;20021;-78
2021/09/14 11:18:25;;;;;;;14.48;9.18;;;;;;;-146.90;100.00;60518.97;5029683;28;20439;-79
2021/09/14 11:20:52;;;;;;;14.10;8.80;;;;;;;-146.90;100.00;60518.97;5026596;28;20022;-79
2021/09/14 11:23:24;;;;;;;13.68;9.18;;;;;;;-146.90;100.00;60518.97;5011430;28;20041;-80
2021/09/14 11:25:53;;;;;;;12.25;9.48;;;;;;;-146.90;100.00;60518.97;5010701;28;20502;-79
2021/09/14 11:28:19;;;;;;;12.88;7.97;;;;;;;-146.90;100.00;60518.97;5010231;28;20074;-79
2021/09/14 11:30:52;;;;;;;16.35;10.23;;;;;;;-146.90;100.00;60518.97;5026676;28;20064;-79
2021/09/14 11:33:17;;;;;;;13.75;9.88;;;;;;;-146.90;100.00;60518.97;5029161;28;20460;-78
2021/09/14 11:35:43;;;;;;;17.70;8.80;;;;;;;-146.90;100.00;60518.97;5010935;28;20061;-80
2021/09/14 11:38:09;;;;;;;16.77;10.27;;;;;;;-146.90;100.00;60518.97;5010727;28;20056;-79
2021/09/14 11:40:48;;;;;;;19.60;9.10;;;;;;;-146.90;100.00;60518.97;5027876;28;20021;-79
2021/09/14 11:43:19;;;;;;;19.95;8.43;;;;;;;-146.90;100.00;60518.97;5015940;28;20021;-79
2021/09/14 11:45:44;;;;;;;12.85;8.93;;;;;;;-146.90;100.00;60518.97;5022973;28;20025;-79
2021/09/14 11:48:23;;;;;;;13.27;9.35;;;;;;;-146.90;100.00;60518.97;5028117;28;20100;-80
2021/09/14 11:51:04;;;;;;;14.35;9.32;;;;;;;-146.90;100.00;60518.97;5022236;28;20052;-81
2021/09/14 11:53:29;;;;;;;17.30;9.40;;;;;;;-146.90;100.00;60518.97;4997359;28;20026;-79
2021/09/14 11:55:55;;;;;;;12.98;8.43;;;;;;;-146.90;100.00;60518.97;5028166;28;20123;-81
2021/09/14 11:58:29;;;;;;;14.75;9.98;;;;;;;-146.90;100.00;60518.97;5010656;28;20383;-78
2021/09/14 12:00:56;;;;;;;19.00;10.75;;;;;;;-146.90;100.00;60518.97;5020780;28;20121;-80
2021/09/14 12:03:22;;;;;;;14.52;9.70;;;;;;;-146.90;100.00;60518.97;5027045;28;20193;-80
2021/09/14 12:05:57;;;;;;;18.50;9.95;;;;;;;-146.90;100.00;60518.97;5011050;28;20096;-81